LHR weather

London Heathrow Airport
London, England, United Kingdom

Public forecast

Using degrees Celsius for public forecast. Weather courtesy of forecast.io.

Current aviation weather report (METAR) for London Heathrow Airport

Retrieved 2020/03/30 20:20 UTC (2 minutes ago):

EGLL 302020Z AUTO 02006KT 350V060 9999 BKN034 07/02 Q1032 NOSIG

Aviation forecast (TAF) for London Heathrow Airport

Retrieved 2020/03/30 18:21 UTC (2 hours ago):

TAF EGLL 301717Z 3018/3124 03008KT 9999 SCT030